Accueil
METAR-TAF:

METAR-TAF

Aéroports :

Cape Dorset, Nunavut, Canada

latitude: 64-13N, longitude: 076-32W, altitude: 51 m

Observation

Le bulletin a été fait il y a 2 heures et 48 minutes, à 16:00 UTC
Vent 3 kt de direction variable
Température -7°C
Humidité 45%
Pression 1020 hPa
Visibilité: 24.1 km
Quelques nuages à une hauteur de 26000 ft

METAR: CYTE 061600Z VRB03KT 15SM FEW260 M07/M17 A3012 RMK CI1 CI TR SLP206

Heure: 14:48 (18:48 UTC)

Prévision

Le bulletin a été fait il y a 6 heures et 9 minutes, à 12:39 UTC
Prévision valable du 06 à 13 UTC au 07 à 01 UTC
Vent 3 kt de direction variable
Visibilité: 10 km
Quelques nuages à une hauteur de 24000 ft
Evoluant progressivement
du 06 à 14 UTC au 06 à 16 UTC
Vent 12 kt de nord-ouest

TAF: CYTE 061239Z 0613/0701 VRB03KT P6SM FEW240 BECMG 0614/0616 31012KT RMK FCST BASED ON AUTO OBS. NXT FCST BY 061900Z

Observations et prévisions météorologiques de plus de 4000 aéroports (messages METAR et TAF).

Les stations disponibles sont représentées par des disques jaunes et rouges sur la carte.

Passer la souris dessus pour voir le nom de la station.

Cliquer dessus pour voir les observations et prévisions météorologiques.

Pour changer de carte: cliquez sur les boutons verts avec une croix noire pour zoomer, sur le bouton vert avec un tiret pour effectuer un zoom arrière, ou sur les flèches vertes pour les cartes adjacentes.


METAR-TAF: